sensor_id;sensor_type;location;lat;lon;timestamp;temperature;humidity
9125;DHT22;4597;48.730;9.114;2023-07-31T00:02:10;17.60;99.90
9125;DHT22;4597;48.730;9.114;2023-07-31T00:04:35;17.50;99.90
9125;DHT22;4597;48.730;9.114;2023-07-31T00:07:01;17.50;99.90
9125;DHT22;4597;48.730;9.114;2023-07-31T00:09:29;17.40;99.90
9125;DHT22;4597;48.730;9.114;2023-07-31T00:11:54;17.40;99.90
9125;DHT22;4597;48.730;9.114;2023-07-31T00:14:20;17.30;99.90
9125;DHT22;4597;48.730;9.114;2023-07-31T00:16:45;17.30;99.90
9125;DHT22;4597;48.730;9.114;2023-07-31T00:19:11;17.20;99.90
9125;DHT22;4597;48.730;9.114;2023-07-31T00:21:36;17.10;99.90
9125;DHT22;4597;48.730;9.114;2023-07-31T00:24:02;17.10;99.90
9125;DHT22;4597;48.730;9.114;2023-07-31T00:26:28;17.10;99.90
9125;DHT22;4597;48.730;9.114;2023-07-31T00:28:53;17.10;99.90
9125;DHT22;4597;48.730;9.114;2023-07-31T00:31:19;17.10;99.90
9125;DHT22;4597;48.730;9.114;2023-07-31T00:33:44;17.10;99.90
9125;DHT22;4597;48.730;9.114;2023-07-31T00:36:09;17.10;99.90
9125;DHT22;4597;48.730;9.114;2023-07-31T00:38:35;17.10;99.90
9125;DHT22;4597;48.730;9.114;2023-07-31T00:41:00;17.10;99.90
9125;DHT22;4597;48.730;9.114;2023-07-31T00:43:26;17.00;99.90
9125;DHT22;4597;48.730;9.114;2023-07-31T00:45:52;17.00;99.90
9125;DHT22;4597;48.730;9.114;2023-07-31T00:48:17;17.00;99.90
9125;DHT22;4597;48.730;9.114;2023-07-31T00:50:43;17.00;99.90
9125;DHT22;4597;48.730;9.114;2023-07-31T00:53:08;16.90;99.90
9125;DHT22;4597;48.730;9.114;2023-07-31T00:55:34;16.90;99.90
9125;DHT22;4597;48.730;9.114;2023-07-31T00:57:59;16.90;99.90
9125;DHT22;4597;48.730;9.114;2023-07-31T01:00:25;16.90;99.90
9125;DHT22;4597;48.730;9.114;2023-07-31T01:02:51;16.90;99.90
9125;DHT22;4597;48.730;9.114;2023-07-31T01:05:23;16.80;99.90
9125;DHT22;4597;48.730;9.114;2023-07-31T01:08:03;16.90;99.90
9125;DHT22;4597;48.730;9.114;2023-07-31T01:10:39;16.80;99.90
9125;DHT22;4597;48.730;9.114;2023-07-31T01:13:08;16.80;99.90
9125;DHT22;4597;48.730;9.114;2023-07-31T01:15:33;16.80;99.90
9125;DHT22;4597;48.730;9.114;2023-07-31T01:17:59;16.90;99.90
9125;DHT22;4597;48.730;9.114;2023-07-31T01:20:26;16.90;99.90
9125;DHT22;4597;48.730;9.114;2023-07-31T01:28:50;16.90;99.90
9125;DHT22;4597;48.730;9.114;2023-07-31T01:31:22;16.90;99.90
9125;DHT22;4597;48.730;9.114;2023-07-31T01:33:50;16.90;99.90
9125;DHT22;4597;48.730;9.114;2023-07-31T01:36:15;16.90;99.90
9125;DHT22;4597;48.730;9.114;2023-07-31T01:38:41;16.90;99.90
9125;DHT22;4597;48.730;9.114;2023-07-31T01:41:07;16.90;99.90
9125;DHT22;4597;48.730;9.114;2023-07-31T01:43:32;16.90;99.90
9125;DHT22;4597;48.730;9.114;2023-07-31T01:45:58;16.90;99.90
9125;DHT22;4597;48.730;9.114;2023-07-31T01:48:23;16.90;99.90
9125;DHT22;4597;48.730;9.114;2023-07-31T01:50:49;16.90;99.90
9125;DHT22;4597;48.730;9.114;2023-07-31T01:53:15;16.90;99.90
9125;DHT22;4597;48.730;9.114;2023-07-31T01:55:40;16.90;99.90
9125;DHT22;4597;48.730;9.114;2023-07-31T01:58:06;16.90;99.90
9125;DHT22;4597;48.730;9.114;2023-07-31T02:00:31;17.00;99.90
9125;DHT22;4597;48.730;9.114;2023-07-31T02:02:56;17.00;99.90
9125;DHT22;4597;48.730;9.114;2023-07-31T02:05:22;17.00;99.90
9125;DHT22;4597;48.730;9.114;2023-07-31T02:07:48;17.00;99.90
9125;DHT22;4597;48.730;9.114;2023-07-31T02:10:13;17.00;99.90
9125;DHT22;4597;48.730;9.114;2023-07-31T02:12:39;17.00;99.90
9125;DHT22;4597;48.730;9.114;2023-07-31T02:15:04;17.00;99.90
9125;DHT22;4597;48.730;9.114;2023-07-31T02:17:30;17.00;99.90
9125;DHT22;4597;48.730;9.114;2023-07-31T02:19:56;17.00;99.90
9125;DHT22;4597;48.730;9.114;2023-07-31T02:22:21;17.00;99.90
9125;DHT22;4597;48.730;9.114;2023-07-31T02:24:47;17.00;99.90
9125;DHT22;4597;48.730;9.114;2023-07-31T02:27:12;16.90;99.90
9125;DHT22;4597;48.730;9.114;2023-07-31T02:29:38;17.00;99.90
9125;DHT22;4597;48.730;9.114;2023-07-31T02:32:03;16.90;99.90
9125;DHT22;4597;48.730;9.114;2023-07-31T02:34:29;16.90;99.90
9125;DHT22;4597;48.730;9.114;2023-07-31T02:36:54;16.90;99.90
9125;DHT22;4597;48.730;9.114;2023-07-31T02:39:20;16.90;99.90
9125;DHT22;4597;48.730;9.114;2023-07-31T02:41:46;16.90;99.90
9125;DHT22;4597;48.730;9.114;2023-07-31T02:44:11;16.90;99.90
9125;DHT22;4597;48.730;9.114;2023-07-31T02:46:39;16.80;99.90
9125;DHT22;4597;48.730;9.114;2023-07-31T02:49:05;16.80;99.90
9125;DHT22;4597;48.730;9.114;2023-07-31T02:51:30;16.80;99.90
9125;DHT22;4597;48.730;9.114;2023-07-31T02:53:56;16.80;99.90
9125;DHT22;4597;48.730;9.114;2023-07-31T02:56:21;16.70;99.90
9125;DHT22;4597;48.730;9.114;2023-07-31T02:58:47;16.70;99.90
9125;DHT22;4597;48.730;9.114;2023-07-31T03:01:12;16.70;99.90
9125;DHT22;4597;48.730;9.114;2023-07-31T03:03:38;16.70;99.90
9125;DHT22;4597;48.730;9.114;2023-07-31T03:06:04;16.80;99.90
9125;DHT22;4597;48.730;9.114;2023-07-31T03:08:29;16.80;99.90
9125;DHT22;4597;48.730;9.114;2023-07-31T03:10:56;16.80;99.90
9125;DHT22;4597;48.730;9.114;2023-07-31T03:13:22;16.90;99.90
9125;DHT22;4597;48.730;9.114;2023-07-31T03:15:47;16.90;99.90
9125;DHT22;4597;48.730;9.114;2023-07-31T03:18:13;16.80;99.90
9125;DHT22;4597;48.730;9.114;2023-07-31T03:20:42;16.80;99.90
9125;DHT22;4597;48.730;9.114;2023-07-31T03:23:09;16.80;99.90
9125;DHT22;4597;48.730;9.114;2023-07-31T03:25:34;16.80;99.90
9125;DHT22;4597;48.730;9.114;2023-07-31T03:28:00;16.90;99.90
9125;DHT22;4597;48.730;9.114;2023-07-31T03:30:25;16.90;99.90
9125;DHT22;4597;48.730;9.114;2023-07-31T03:32:51;16.80;99.90
9125;DHT22;4597;48.730;9.114;2023-07-31T03:35:16;16.90;99.90
9125;DHT22;4597;48.730;9.114;2023-07-31T03:37:42;16.80;99.90
9125;DHT22;4597;48.730;9.114;2023-07-31T03:40:08;16.80;99.90
9125;DHT22;4597;48.730;9.114;2023-07-31T03:42:33;16.70;99.90
9125;DHT22;4597;48.730;9.114;2023-07-31T03:44:59;16.80;99.90
9125;DHT22;4597;48.730;9.114;2023-07-31T03:47:24;16.80;99.90
9125;DHT22;4597;48.730;9.114;2023-07-31T03:49:50;16.80;99.90
9125;DHT22;4597;48.730;9.114;2023-07-31T03:52:15;16.80;99.90
9125;DHT22;4597;48.730;9.114;2023-07-31T03:54:41;16.80;99.90
9125;DHT22;4597;48.730;9.114;2023-07-31T03:57:06;16.80;99.90
9125;DHT22;4597;48.730;9.114;2023-07-31T03:59:32;16.80;99.90
9125;DHT22;4597;48.730;9.114;2023-07-31T04:01:57;16.90;99.90
9125;DHT22;4597;48.730;9.114;2023-07-31T04:04:23;16.90;99.90
9125;DHT22;4597;48.730;9.114;2023-07-31T04:06:48;17.00;99.90
9125;DHT22;4597;48.730;9.114;2023-07-31T04:09:14;17.00;99.90
9125;DHT22;4597;48.730;9.114;2023-07-31T04:11:39;17.00;99.90
9125;DHT22;4597;48.730;9.114;2023-07-31T04:14:05;17.00;99.90
9125;DHT22;4597;48.730;9.114;2023-07-31T04:16:30;17.10;99.90
9125;DHT22;4597;48.730;9.114;2023-07-31T04:18:56;17.10;99.90
9125;DHT22;4597;48.730;9.114;2023-07-31T04:21:21;17.10;99.90
9125;DHT22;4597;48.730;9.114;2023-07-31T04:23:47;17.10;99.90
9125;DHT22;4597;48.730;9.114;2023-07-31T04:26:12;17.10;99.90
9125;DHT22;4597;48.730;9.114;2023-07-31T04:28:38;17.20;99.90
9125;DHT22;4597;48.730;9.114;2023-07-31T04:31:03;17.20;99.90
9125;DHT22;4597;48.730;9.114;2023-07-31T04:33:29;17.20;99.90
9125;DHT22;4597;48.730;9.114;2023-07-31T04:35:54;17.30;99.90
9125;DHT22;4597;48.730;9.114;2023-07-31T04:38:21;17.30;99.90
9125;DHT22;4597;48.730;9.114;2023-07-31T04:40:46;17.30;99.90
9125;DHT22;4597;48.730;9.114;2023-07-31T04:43:12;17.40;99.90
9125;DHT22;4597;48.730;9.114;2023-07-31T04:45:38;17.40;99.90
9125;DHT22;4597;48.730;9.114;2023-07-31T04:48:03;17.40;99.90
9125;DHT22;4597;48.730;9.114;2023-07-31T04:50:29;17.40;99.90
9125;DHT22;4597;48.730;9.114;2023-07-31T04:52:56;17.40;99.90
9125;DHT22;4597;48.730;9.114;2023-07-31T04:55:22;17.40;99.90
9125;DHT22;4597;48.730;9.114;2023-07-31T04:57:47;17.40;99.90
9125;DHT22;4597;48.730;9.114;2023-07-31T05:00:13;17.40;99.90
9125;DHT22;4597;48.730;9.114;2023-07-31T05:02:39;17.40;99.90
9125;DHT22;4597;48.730;9.114;2023-07-31T05:05:04;17.30;99.90
9125;DHT22;4597;48.730;9.114;2023-07-31T05:07:30;17.40;99.90
9125;DHT22;4597;48.730;9.114;2023-07-31T05:09:55;17.30;99.90
9125;DHT22;4597;48.730;9.114;2023-07-31T05:12:21;17.20;99.90
9125;DHT22;4597;48.730;9.114;2023-07-31T05:14:46;17.30;99.90
9125;DHT22;4597;48.730;9.114;2023-07-31T05:17:12;17.30;99.90
9125;DHT22;4597;48.730;9.114;2023-07-31T05:19:37;17.40;99.90
9125;DHT22;4597;48.730;9.114;2023-07-31T05:22:03;17.40;99.90
9125;DHT22;4597;48.730;9.114;2023-07-31T05:24:29;17.50;99.90
9125;DHT22;4597;48.730;9.114;2023-07-31T05:26:54;17.50;99.90
9125;DHT22;4597;48.730;9.114;2023-07-31T05:29:20;17.40;99.90
9125;DHT22;4597;48.730;9.114;2023-07-31T05:31:46;17.50;99.90
9125;DHT22;4597;48.730;9.114;2023-07-31T05:34:11;17.60;99.90
9125;DHT22;4597;48.730;9.114;2023-07-31T05:36:37;17.60;99.90
9125;DHT22;4597;48.730;9.114;2023-07-31T05:39:02;17.60;99.90
9125;DHT22;4597;48.730;9.114;2023-07-31T05:41:32;17.70;99.90
9125;DHT22;4597;48.730;9.114;2023-07-31T05:43:57;17.70;99.90
9125;DHT22;4597;48.730;9.114;2023-07-31T05:46:23;17.70;99.90
9125;DHT22;4597;48.730;9.114;2023-07-31T05:48:48;17.80;99.90
9125;DHT22;4597;48.730;9.114;2023-07-31T05:51:14;17.80;99.90
9125;DHT22;4597;48.730;9.114;2023-07-31T05:53:39;17.90;99.90
9125;DHT22;4597;48.730;9.114;2023-07-31T05:56:06;17.90;99.90
9125;DHT22;4597;48.730;9.114;2023-07-31T05:58:32;18.00;99.90
9125;DHT22;4597;48.730;9.114;2023-07-31T06:00:57;18.00;99.90
9125;DHT22;4597;48.730;9.114;2023-07-31T06:03:23;18.00;99.90
9125;DHT22;4597;48.730;9.114;2023-07-31T06:05:48;18.10;99.90
9125;DHT22;4597;48.730;9.114;2023-07-31T06:08:14;18.10;99.90
9125;DHT22;4597;48.730;9.114;2023-07-31T06:10:39;18.20;99.90
9125;DHT22;4597;48.730;9.114;2023-07-31T06:13:05;18.20;99.90
9125;DHT22;4597;48.730;9.114;2023-07-31T06:15:30;18.30;99.90
9125;DHT22;4597;48.730;9.114;2023-07-31T06:17:56;18.40;99.90
9125;DHT22;4597;48.730;9.114;2023-07-31T06:20:22;18.50;99.90
9125;DHT22;4597;48.730;9.114;2023-07-31T06:22:48;18.50;99.90
9125;DHT22;4597;48.730;9.114;2023-07-31T06:25:13;18.50;99.90
9125;DHT22;4597;48.730;9.114;2023-07-31T06:27:39;18.60;99.90
9125;DHT22;4597;48.730;9.114;2023-07-31T06:30:05;18.60;99.90
9125;DHT22;4597;48.730;9.114;2023-07-31T06:32:31;18.70;99.90
9125;DHT22;4597;48.730;9.114;2023-07-31T06:34:56;18.80;99.90
9125;DHT22;4597;48.730;9.114;2023-07-31T06:37:22;18.80;99.90
9125;DHT22;4597;48.730;9.114;2023-07-31T06:39:47;18.80;99.90
9125;DHT22;4597;48.730;9.114;2023-07-31T06:42:13;18.90;99.90
9125;DHT22;4597;48.730;9.114;2023-07-31T06:44:39;19.00;99.90
9125;DHT22;4597;48.730;9.114;2023-07-31T06:47:05;19.00;99.90
9125;DHT22;4597;48.730;9.114;2023-07-31T06:49:30;19.00;99.90
9125;DHT22;4597;48.730;9.114;2023-07-31T06:51:56;19.00;99.90
9125;DHT22;4597;48.730;9.114;2023-07-31T06:54:21;19.10;99.90
9125;DHT22;4597;48.730;9.114;2023-07-31T06:56:47;19.20;99.90
9125;DHT22;4597;48.730;9.114;2023-07-31T06:59:12;19.20;99.90
9125;DHT22;4597;48.730;9.114;2023-07-31T07:01:38;19.20;99.90
9125;DHT22;4597;48.730;9.114;2023-07-31T07:04:03;19.30;99.90
9125;DHT22;4597;48.730;9.114;2023-07-31T07:06:29;19.30;99.90
9125;DHT22;4597;48.730;9.114;2023-07-31T07:08:54;19.40;99.90
9125;DHT22;4597;48.730;9.114;2023-07-31T07:11:20;19.40;99.90
9125;DHT22;4597;48.730;9.114;2023-07-31T07:13:45;19.40;99.90
9125;DHT22;4597;48.730;9.114;2023-07-31T07:16:11;19.40;99.90
9125;DHT22;4597;48.730;9.114;2023-07-31T07:18:37;19.50;99.90
9125;DHT22;4597;48.730;9.114;2023-07-31T07:21:02;19.50;99.90
9125;DHT22;4597;48.730;9.114;2023-07-31T07:23:28;19.50;99.90
9125;DHT22;4597;48.730;9.114;2023-07-31T07:25:53;19.40;99.90
9125;DHT22;4597;48.730;9.114;2023-07-31T07:28:19;19.50;99.90
9125;DHT22;4597;48.730;9.114;2023-07-31T07:30:44;19.50;99.90
9125;DHT22;4597;48.730;9.114;2023-07-31T07:33:10;19.50;99.90
9125;DHT22;4597;48.730;9.114;2023-07-31T07:35:36;19.60;99.90
9125;DHT22;4597;48.730;9.114;2023-07-31T07:38:02;19.60;99.90
9125;DHT22;4597;48.730;9.114;2023-07-31T07:40:28;19.70;99.90
9125;DHT22;4597;48.730;9.114;2023-07-31T07:42:53;19.70;99.90
9125;DHT22;4597;48.730;9.114;2023-07-31T07:45:19;19.80;99.90
9125;DHT22;4597;48.730;9.114;2023-07-31T07:47:44;19.90;99.90
9125;DHT22;4597;48.730;9.114;2023-07-31T07:50:10;19.90;99.90
9125;DHT22;4597;48.730;9.114;2023-07-31T07:52:35;20.00;99.90
9125;DHT22;4597;48.730;9.114;2023-07-31T07:55:01;20.00;99.90
9125;DHT22;4597;48.730;9.114;2023-07-31T07:57:27;20.10;99.90
9125;DHT22;4597;48.730;9.114;2023-07-31T07:59:53;20.20;99.90
9125;DHT22;4597;48.730;9.114;2023-07-31T08:02:18;20.20;99.90
9125;DHT22;4597;48.730;9.114;2023-07-31T08:04:44;20.30;99.90
9125;DHT22;4597;48.730;9.114;2023-07-31T08:07:12;20.30;99.90
9125;DHT22;4597;48.730;9.114;2023-07-31T08:09:38;20.30;99.90
9125;DHT22;4597;48.730;9.114;2023-07-31T08:12:05;20.30;99.90
9125;DHT22;4597;48.730;9.114;2023-07-31T08:14:30;20.40;99.90
9125;DHT22;4597;48.730;9.114;2023-07-31T08:16:56;20.50;99.90
9125;DHT22;4597;48.730;9.114;2023-07-31T08:19:22;20.60;99.90
9125;DHT22;4597;48.730;9.114;2023-07-31T08:21:47;20.60;99.90
9125;DHT22;4597;48.730;9.114;2023-07-31T08:24:13;20.60;99.90
9125;DHT22;4597;48.730;9.114;2023-07-31T08:26:38;20.60;99.90
9125;DHT22;4597;48.730;9.114;2023-07-31T08:29:04;20.60;99.90
9125;DHT22;4597;48.730;9.114;2023-07-31T08:31:29;20.60;99.80
9125;DHT22;4597;48.730;9.114;2023-07-31T08:33:56;20.60;99.90
9125;DHT22;4597;48.730;9.114;2023-07-31T08:36:21;20.60;99.90
9125;DHT22;4597;48.730;9.114;2023-07-31T08:38:47;20.60;99.90
9125;DHT22;4597;48.730;9.114;2023-07-31T08:41:13;20.70;99.90
9125;DHT22;4597;48.730;9.114;2023-07-31T08:43:39;20.80;99.90
9125;DHT22;4597;48.730;9.114;2023-07-31T08:46:05;20.70;99.90
9125;DHT22;4597;48.730;9.114;2023-07-31T08:48:32;20.90;99.90
9125;DHT22;4597;48.730;9.114;2023-07-31T08:50:58;21.00;99.40
9125;DHT22;4597;48.730;9.114;2023-07-31T08:53:23;21.00;98.60
9125;DHT22;4597;48.730;9.114;2023-07-31T08:55:49;21.00;98.70
9125;DHT22;4597;48.730;9.114;2023-07-31T08:58:15;21.10;98.40
9125;DHT22;4597;48.730;9.114;2023-07-31T09:00:43;21.10;98.80
9125;DHT22;4597;48.730;9.114;2023-07-31T09:03:13;20.90;99.40
9125;DHT22;4597;48.730;9.114;2023-07-31T09:05:43;20.90;98.40
9125;DHT22;4597;48.730;9.114;2023-07-31T09:08:09;20.90;98.60
9125;DHT22;4597;48.730;9.114;2023-07-31T09:10:43;20.80;98.10
9125;DHT22;4597;48.730;9.114;2023-07-31T09:13:09;20.80;99.00
9125;DHT22;4597;48.730;9.114;2023-07-31T09:15:36;20.80;98.20
9125;DHT22;4597;48.730;9.114;2023-07-31T09:18:03;20.90;98.50
9125;DHT22;4597;48.730;9.114;2023-07-31T09:20:30;21.00;98.80
9125;DHT22;4597;48.730;9.114;2023-07-31T09:22:57;21.20;98.40
9125;DHT22;4597;48.730;9.114;2023-07-31T09:25:30;21.10;97.30
9125;DHT22;4597;48.730;9.114;2023-07-31T09:28:00;21.20;97.00
9125;DHT22;4597;48.730;9.114;2023-07-31T09:30:26;21.20;97.90
9125;DHT22;4597;48.730;9.114;2023-07-31T09:33:01;21.30;96.60
9125;DHT22;4597;48.730;9.114;2023-07-31T09:35:34;21.40;97.40
9125;DHT22;4597;48.730;9.114;2023-07-31T09:38:10;21.50;96.60
9125;DHT22;4597;48.730;9.114;2023-07-31T09:40:46;21.60;96.70
9125;DHT22;4597;48.730;9.114;2023-07-31T09:43:17;21.60;96.80
9125;DHT22;4597;48.730;9.114;2023-07-31T09:45:44;21.70;97.50
9125;DHT22;4597;48.730;9.114;2023-07-31T09:48:11;21.70;96.60
9125;DHT22;4597;48.730;9.114;2023-07-31T09:50:43;21.70;96.80
9125;DHT22;4597;48.730;9.114;2023-07-31T09:53:09;21.70;93.70
9125;DHT22;4597;48.730;9.114;2023-07-31T09:55:36;21.60;91.70
9125;DHT22;4597;48.730;9.114;2023-07-31T09:58:07;21.60;92.50
9125;DHT22;4597;48.730;9.114;2023-07-31T10:00:34;21.50;90.10
9125;DHT22;4597;48.730;9.114;2023-07-31T10:03:01;21.50;91.60
9125;DHT22;4597;48.730;9.114;2023-07-31T10:05:34;21.50;90.90
9125;DHT22;4597;48.730;9.114;2023-07-31T10:08:00;21.50;90.30
9125;DHT22;4597;48.730;9.114;2023-07-31T10:10:26;21.60;89.60
9125;DHT22;4597;48.730;9.114;2023-07-31T10:12:53;21.70;87.70
9125;DHT22;4597;48.730;9.114;2023-07-31T10:15:19;21.60;89.20
9125;DHT22;4597;48.730;9.114;2023-07-31T10:17:49;21.70;87.90
9125;DHT22;4597;48.730;9.114;2023-07-31T10:20:16;21.70;85.50
9125;DHT22;4597;48.730;9.114;2023-07-31T10:22:42;21.90;83.80
9125;DHT22;4597;48.730;9.114;2023-07-31T10:25:09;22.00;86.30
9125;DHT22;4597;48.730;9.114;2023-07-31T10:27:38;22.00;84.20
9125;DHT22;4597;48.730;9.114;2023-07-31T10:30:06;22.00;86.30
9125;DHT22;4597;48.730;9.114;2023-07-31T10:32:33;22.00;85.40
9125;DHT22;4597;48.730;9.114;2023-07-31T10:34:59;22.10;82.50
9125;DHT22;4597;48.730;9.114;2023-07-31T10:37:35;22.00;83.70
9125;DHT22;4597;48.730;9.114;2023-07-31T10:40:06;22.10;88.10
9125;DHT22;4597;48.730;9.114;2023-07-31T10:42:36;22.10;83.40
9125;DHT22;4597;48.730;9.114;2023-07-31T10:45:04;22.00;83.40
9125;DHT22;4597;48.730;9.114;2023-07-31T10:47:31;22.00;84.90
9125;DHT22;4597;48.730;9.114;2023-07-31T10:50:16;22.10;81.70
9125;DHT22;4597;48.730;9.114;2023-07-31T10:52:46;22.20;80.00
9125;DHT22;4597;48.730;9.114;2023-07-31T10:58:11;22.30;80.10
9125;DHT22;4597;48.730;9.114;2023-07-31T11:00:39;22.40;77.40
9125;DHT22;4597;48.730;9.114;2023-07-31T11:03:18;22.30;77.40
9125;DHT22;4597;48.730;9.114;2023-07-31T11:08:20;22.20;77.40
9125;DHT22;4597;48.730;9.114;2023-07-31T11:10:47;22.30;78.80
9125;DHT22;4597;48.730;9.114;2023-07-31T11:13:14;22.20;78.00
9125;DHT22;4597;48.730;9.114;2023-07-31T11:15:39;22.30;79.40
9125;DHT22;4597;48.730;9.114;2023-07-31T11:18:05;22.30;79.40
9125;DHT22;4597;48.730;9.114;2023-07-31T11:20:34;22.40;79.20
9125;DHT22;4597;48.730;9.114;2023-07-31T11:23:08;22.40;79.80
9125;DHT22;4597;48.730;9.114;2023-07-31T11:25:34;22.50;76.70
9125;DHT22;4597;48.730;9.114;2023-07-31T11:28:07;22.60;79.20
9125;DHT22;4597;48.730;9.114;2023-07-31T11:30:34;22.50;79.60
9125;DHT22;4597;48.730;9.114;2023-07-31T11:33:05;22.50;76.80
9125;DHT22;4597;48.730;9.114;2023-07-31T11:35:44;22.50;77.40
9125;DHT22;4597;48.730;9.114;2023-07-31T11:38:44;22.50;77.70
9125;DHT22;4597;48.730;9.114;2023-07-31T11:41:04;22.60;79.30
9125;DHT22;4597;48.730;9.114;2023-07-31T11:43:30;22.80;80.00
9125;DHT22;4597;48.730;9.114;2023-07-31T11:46:00;22.70;76.80
9125;DHT22;4597;48.730;9.114;2023-07-31T11:48:32;22.80;75.90
9125;DHT22;4597;48.730;9.114;2023-07-31T11:51:06;23.00;73.80
9125;DHT22;4597;48.730;9.114;2023-07-31T11:56:06;23.30;74.10
9125;DHT22;4597;48.730;9.114;2023-07-31T11:58:34;23.10;71.00
9125;DHT22;4597;48.730;9.114;2023-07-31T12:01:00;23.10;70.80
9125;DHT22;4597;48.730;9.114;2023-07-31T12:03:27;23.20;71.90
9125;DHT22;4597;48.730;9.114;2023-07-31T12:05:55;23.10;72.90
9125;DHT22;4597;48.730;9.114;2023-07-31T12:08:22;23.20;73.60
9125;DHT22;4597;48.730;9.114;2023-07-31T12:10:51;23.30;72.10
9125;DHT22;4597;48.730;9.114;2023-07-31T12:13:34;23.30;72.50
9125;DHT22;4597;48.730;9.114;2023-07-31T12:16:01;23.20;69.00
9125;DHT22;4597;48.730;9.114;2023-07-31T12:18:30;23.20;70.30
9125;DHT22;4597;48.730;9.114;2023-07-31T12:21:01;23.30;70.50
9125;DHT22;4597;48.730;9.114;2023-07-31T12:23:34;23.30;71.50
9125;DHT22;4597;48.730;9.114;2023-07-31T12:26:12;23.40;71.50
9125;DHT22;4597;48.730;9.114;2023-07-31T12:28:43;23.30;68.40
9125;DHT22;4597;48.730;9.114;2023-07-31T12:31:10;23.30;71.00
9125;DHT22;4597;48.730;9.114;2023-07-31T12:33:38;23.30;68.60
9125;DHT22;4597;48.730;9.114;2023-07-31T12:36:07;23.40;69.40
9125;DHT22;4597;48.730;9.114;2023-07-31T12:38:33;23.30;69.10
9125;DHT22;4597;48.730;9.114;2023-07-31T12:40:58;23.40;70.30
9125;DHT22;4597;48.730;9.114;2023-07-31T12:43:24;23.50;72.20
9125;DHT22;4597;48.730;9.114;2023-07-31T12:45:49;23.60;73.10
9125;DHT22;4597;48.730;9.114;2023-07-31T12:48:15;23.70;71.10
9125;DHT22;4597;48.730;9.114;2023-07-31T12:50:40;23.70;70.50
9125;DHT22;4597;48.730;9.114;2023-07-31T12:53:06;23.50;68.80
9125;DHT22;4597;48.730;9.114;2023-07-31T12:55:32;23.50;69.90
9125;DHT22;4597;48.730;9.114;2023-07-31T12:58:03;23.30;71.60
9125;DHT22;4597;48.730;9.114;2023-07-31T13:00:28;23.40;72.10
9125;DHT22;4597;48.730;9.114;2023-07-31T13:02:54;23.30;71.20
9125;DHT22;4597;48.730;9.114;2023-07-31T13:05:20;23.40;73.20
9125;DHT22;4597;48.730;9.114;2023-07-31T13:07:46;23.50;74.30
9125;DHT22;4597;48.730;9.114;2023-07-31T13:10:12;23.50;72.90
9125;DHT22;4597;48.730;9.114;2023-07-31T13:12:37;23.50;71.80
9125;DHT22;4597;48.730;9.114;2023-07-31T13:15:04;23.40;71.00
9125;DHT22;4597;48.730;9.114;2023-07-31T13:17:30;23.40;71.10
9125;DHT22;4597;48.730;9.114;2023-07-31T13:19:56;23.40;70.30
9125;DHT22;4597;48.730;9.114;2023-07-31T13:22:21;23.60;71.30
9125;DHT22;4597;48.730;9.114;2023-07-31T13:24:47;23.70;69.30
9125;DHT22;4597;48.730;9.114;2023-07-31T13:27:13;23.60;70.80
9125;DHT22;4597;48.730;9.114;2023-07-31T13:29:39;23.50;70.60
9125;DHT22;4597;48.730;9.114;2023-07-31T13:32:04;23.50;69.70
9125;DHT22;4597;48.730;9.114;2023-07-31T13:34:30;23.30;71.50
9125;DHT22;4597;48.730;9.114;2023-07-31T13:36:55;23.40;72.50
9125;DHT22;4597;48.730;9.114;2023-07-31T13:39:21;23.30;70.10
9125;DHT22;4597;48.730;9.114;2023-07-31T13:41:47;23.30;70.80
9125;DHT22;4597;48.730;9.114;2023-07-31T13:44:13;23.30;71.50
9125;DHT22;4597;48.730;9.114;2023-07-31T13:46:39;23.30;71.10
9125;DHT22;4597;48.730;9.114;2023-07-31T13:49:04;23.40;71.60
9125;DHT22;4597;48.730;9.114;2023-07-31T13:51:30;23.40;70.80
9125;DHT22;4597;48.730;9.114;2023-07-31T13:53:56;23.30;70.80
9125;DHT22;4597;48.730;9.114;2023-07-31T13:56:21;23.40;71.80
9125;DHT22;4597;48.730;9.114;2023-07-31T13:58:47;23.30;71.00
9125;DHT22;4597;48.730;9.114;2023-07-31T14:01:12;23.30;70.10
9125;DHT22;4597;48.730;9.114;2023-07-31T14:03:38;23.20;70.30
9125;DHT22;4597;48.730;9.114;2023-07-31T14:06:03;23.30;71.30
9125;DHT22;4597;48.730;9.114;2023-07-31T14:08:29;23.20;71.40
9125;DHT22;4597;48.730;9.114;2023-07-31T14:10:55;23.30;73.00
9125;DHT22;4597;48.730;9.114;2023-07-31T14:13:21;23.20;72.10
9125;DHT22;4597;48.730;9.114;2023-07-31T14:15:46;23.30;70.40
9125;DHT22;4597;48.730;9.114;2023-07-31T14:18:12;23.30;72.10
9125;DHT22;4597;48.730;9.114;2023-07-31T14:20:37;23.30;71.50
9125;DHT22;4597;48.730;9.114;2023-07-31T14:23:03;23.50;72.00
9125;DHT22;4597;48.730;9.114;2023-07-31T14:25:28;23.40;72.20
9125;DHT22;4597;48.730;9.114;2023-07-31T14:27:54;23.30;72.60
9125;DHT22;4597;48.730;9.114;2023-07-31T14:30:19;23.40;72.60
9125;DHT22;4597;48.730;9.114;2023-07-31T14:32:46;23.30;72.30
9125;DHT22;4597;48.730;9.114;2023-07-31T14:35:11;23.30;72.20
9125;DHT22;4597;48.730;9.114;2023-07-31T14:37:41;23.30;73.60
9125;DHT22;4597;48.730;9.114;2023-07-31T14:40:08;23.30;75.00
9125;DHT22;4597;48.730;9.114;2023-07-31T14:42:35;23.30;73.20
9125;DHT22;4597;48.730;9.114;2023-07-31T14:45:01;23.30;73.50
9125;DHT22;4597;48.730;9.114;2023-07-31T14:47:27;23.10;70.20
9125;DHT22;4597;48.730;9.114;2023-07-31T14:49:52;23.10;70.20
9125;DHT22;4597;48.730;9.114;2023-07-31T14:52:18;22.90;71.10
9125;DHT22;4597;48.730;9.114;2023-07-31T14:54:44;22.90;71.40
9125;DHT22;4597;48.730;9.114;2023-07-31T14:57:10;22.90;73.00
9125;DHT22;4597;48.730;9.114;2023-07-31T14:59:35;22.90;73.00
9125;DHT22;4597;48.730;9.114;2023-07-31T15:02:01;22.80;72.30
9125;DHT22;4597;48.730;9.114;2023-07-31T15:04:27;22.80;72.20
9125;DHT22;4597;48.730;9.114;2023-07-31T15:06:53;22.60;72.30
9125;DHT22;4597;48.730;9.114;2023-07-31T15:09:19;22.80;72.40
9125;DHT22;4597;48.730;9.114;2023-07-31T15:11:44;22.80;72.20
9125;DHT22;4597;48.730;9.114;2023-07-31T15:14:10;22.90;71.70
9125;DHT22;4597;48.730;9.114;2023-07-31T15:16:35;23.00;72.10
9125;DHT22;4597;48.730;9.114;2023-07-31T15:19:01;23.00;71.80
9125;DHT22;4597;48.730;9.114;2023-07-31T15:21:26;23.10;71.30
9125;DHT22;4597;48.730;9.114;2023-07-31T15:23:52;23.30;71.00
9125;DHT22;4597;48.730;9.114;2023-07-31T15:26:17;23.50;69.80
9125;DHT22;4597;48.730;9.114;2023-07-31T15:28:48;23.70;69.60
9125;DHT22;4597;48.730;9.114;2023-07-31T15:31:14;23.90;70.00
9125;DHT22;4597;48.730;9.114;2023-07-31T15:33:39;24.10;68.40
9125;DHT22;4597;48.730;9.114;2023-07-31T15:36:05;24.20;67.00
9125;DHT22;4597;48.730;9.114;2023-07-31T15:38:31;24.30;66.50
9125;DHT22;4597;48.730;9.114;2023-07-31T15:40:56;24.40;66.30
9125;DHT22;4597;48.730;9.114;2023-07-31T15:43:21;24.60;65.40
9125;DHT22;4597;48.730;9.114;2023-07-31T15:45:47;24.60;64.20
9125;DHT22;4597;48.730;9.114;2023-07-31T15:48:13;24.60;63.80
9125;DHT22;4597;48.730;9.114;2023-07-31T15:50:38;24.70;64.20
9125;DHT22;4597;48.730;9.114;2023-07-31T15:53:04;24.80;65.00
9125;DHT22;4597;48.730;9.114;2023-07-31T15:55:29;24.90;64.00
9125;DHT22;4597;48.730;9.114;2023-07-31T15:57:55;24.90;63.80
9125;DHT22;4597;48.730;9.114;2023-07-31T16:00:20;24.90;64.00
9125;DHT22;4597;48.730;9.114;2023-07-31T16:02:46;24.70;62.50
9125;DHT22;4597;48.730;9.114;2023-07-31T16:05:11;24.70;63.30
9125;DHT22;4597;48.730;9.114;2023-07-31T16:07:37;24.60;65.30
9125;DHT22;4597;48.730;9.114;2023-07-31T16:10:02;24.40;66.50
9125;DHT22;4597;48.730;9.114;2023-07-31T16:12:28;24.40;68.30